sensor_id;sensor_type;location;lat;lon;timestamp;pressure;altitude;pressure_sealevel;temperature;humidity
15382;BME280;7789;51.364;12.358;2023-01-27T00:01:21;100856.22;;;2.02;100.00
15382;BME280;7789;51.364;12.358;2023-01-27T00:06:24;100851.06;;;2.02;100.00
15382;BME280;7789;51.364;12.358;2023-01-27T00:11:29;100840.66;;;2.03;100.00
15382;BME280;7789;51.364;12.358;2023-01-27T00:16:50;100837.22;;;2.04;100.00
15382;BME280;7789;51.364;12.358;2023-01-27T00:21:53;100842.44;;;2.03;100.00
15382;BME280;7789;51.364;12.358;2023-01-27T00:27:15;100832.25;;;2.00;100.00
15382;BME280;7789;51.364;12.358;2023-01-27T00:32:18;100834.75;;;2.01;100.00
15382;BME280;7789;51.364;12.358;2023-01-27T00:37:39;100823.44;;;2.05;100.00
15382;BME280;7789;51.364;12.358;2023-01-27T00:42:44;100826.84;;;2.06;100.00
15382;BME280;7789;51.364;12.358;2023-01-27T00:47:48;100832.63;;;2.11;100.00
15382;BME280;7789;51.364;12.358;2023-01-27T00:52:51;100827.47;;;2.11;100.00
15382;BME280;7789;51.364;12.358;2023-01-27T00:57:55;100840.28;;;2.14;100.00
15382;BME280;7789;51.364;12.358;2023-01-27T01:02:59;100832.41;;;2.17;100.00
15382;BME280;7789;51.364;12.358;2023-01-27T01:08:03;100836.78;;;2.15;100.00
15382;BME280;7789;51.364;12.358;2023-01-27T01:13:08;100836.84;;;2.13;100.00
15382;BME280;7789;51.364;12.358;2023-01-27T01:18:12;100832.53;;;2.14;100.00
15382;BME280;7789;51.364;12.358;2023-01-27T01:23:15;100832.53;;;2.14;100.00
15382;BME280;7789;51.364;12.358;2023-01-27T01:28:20;100838.59;;;2.13;100.00
15382;BME280;7789;51.364;12.358;2023-01-27T01:33:24;100841.03;;;2.16;100.00
15382;BME280;7789;51.364;12.358;2023-01-27T01:38:29;100841.22;;;2.11;100.00
15382;BME280;7789;51.364;12.358;2023-01-27T01:43:34;100842.00;;;2.13;100.00
15382;BME280;7789;51.364;12.358;2023-01-27T01:48:40;100847.09;;;2.15;100.00
15382;BME280;7789;51.364;12.358;2023-01-27T01:53:50;100847.88;;;2.17;100.00
15382;BME280;7789;51.364;12.358;2023-01-27T01:59:02;100844.44;;;2.16;100.00
15382;BME280;7789;51.364;12.358;2023-01-27T02:04:08;100849.69;;;2.15;100.00
15382;BME280;7789;51.364;12.358;2023-01-27T02:09:14;100853.25;;;2.11;100.00
15382;BME280;7789;51.364;12.358;2023-01-27T02:14:19;100846.19;;;2.16;100.00
15382;BME280;7789;51.364;12.358;2023-01-27T02:19:28;100836.97;;;2.10;100.00
15382;BME280;7789;51.364;12.358;2023-01-27T02:24:38;100840.56;;;2.06;100.00
15382;BME280;7789;51.364;12.358;2023-01-27T02:29:47;100834.44;;;2.09;100.00
15382;BME280;7789;51.364;12.358;2023-01-27T02:34:51;100843.03;;;2.09;100.00
15382;BME280;7789;51.364;12.358;2023-01-27T02:39:57;100836.06;;;2.11;100.00
15382;BME280;7789;51.364;12.358;2023-01-27T02:45:06;100837.88;;;2.09;100.00
15382;BME280;7789;51.364;12.358;2023-01-27T02:50:10;100841.47;;;2.05;100.00
15382;BME280;7789;51.364;12.358;2023-01-27T02:55:13;100861.53;;;1.97;100.00
15382;BME280;7789;51.364;12.358;2023-01-27T03:00:42;100872.72;;;1.98;100.00
15382;BME280;7789;51.364;12.358;2023-01-27T03:05:46;100882.16;;;1.97;100.00
15382;BME280;7789;51.364;12.358;2023-01-27T03:10:53;100888.16;;;1.98;100.00
15382;BME280;7789;51.364;12.358;2023-01-27T03:15:59;100889.28;;;1.91;100.00
15382;BME280;7789;51.364;12.358;2023-01-27T03:21:20;100891.81;;;1.92;100.00
15382;BME280;7789;51.364;12.358;2023-01-27T03:26:23;100901.28;;;1.92;100.00
15382;BME280;7789;51.364;12.358;2023-01-27T03:31:28;100896.13;;;1.92;100.00
15382;BME280;7789;51.364;12.358;2023-01-27T03:36:31;100908.09;;;1.93;100.00
15382;BME280;7789;51.364;12.358;2023-01-27T03:41:52;100902.03;;;1.94;100.00
15382;BME280;7789;51.364;12.358;2023-01-27T03:47:14;100902.28;;;1.88;100.00
15382;BME280;7789;51.364;12.358;2023-01-27T03:52:17;100901.50;;;1.86;100.00
15382;BME280;7789;51.364;12.358;2023-01-27T03:57:20;100908.19;;;1.91;100.00
15382;BME280;7789;51.364;12.358;2023-01-27T04:02:24;100903.31;;;1.84;100.00
15382;BME280;7789;51.364;12.358;2023-01-27T04:07:45;100903.34;;;1.82;100.00
15382;BME280;7789;51.364;12.358;2023-01-27T04:12:48;100909.13;;;1.89;100.00
15382;BME280;7789;51.364;12.358;2023-01-27T04:17:53;100903.97;;;1.89;100.00
15382;BME280;7789;51.364;12.358;2023-01-27T04:23:11;100908.34;;;1.87;100.00
15382;BME280;7789;51.364;12.358;2023-01-27T04:28:15;100914.94;;;1.94;100.00
15382;BME280;7789;51.364;12.358;2023-01-27T04:33:35;100908.09;;;1.93;100.00
15382;BME280;7789;51.364;12.358;2023-01-27T04:38:39;100921.88;;;1.92;100.00
15382;BME280;7789;51.364;12.358;2023-01-27T04:43:42;100915.75;;;1.96;100.00
15382;BME280;7789;51.364;12.358;2023-01-27T04:48:47;100926.81;;;1.98;100.00
15382;BME280;7789;51.364;12.358;2023-01-27T04:53:50;100926.81;;;1.98;100.00
15382;BME280;7789;51.364;12.358;2023-01-27T04:58:53;100925.16;;;1.97;100.00
15382;BME280;7789;51.364;12.358;2023-01-27T05:03:58;100933.53;;;2.02;100.00
15382;BME280;7789;51.364;12.358;2023-01-27T05:09:01;100924.00;;;2.04;100.00
15382;BME280;7789;51.364;12.358;2023-01-27T05:14:05;100928.44;;;2.00;100.00
15382;BME280;7789;51.364;12.358;2023-01-27T05:19:09;100930.22;;;1.98;100.00
15382;BME280;7789;51.364;12.358;2023-01-27T05:24:13;100936.25;;;1.99;100.00
15382;BME280;7789;51.364;12.358;2023-01-27T05:29:23;100939.53;;;2.02;100.00
15382;BME280;7789;51.364;12.358;2023-01-27T05:34:27;100933.41;;;2.05;100.00
15382;BME280;7789;51.364;12.358;2023-01-27T05:39:30;100940.25;;;2.06;100.00
15382;BME280;7789;51.364;12.358;2023-01-27T05:44:33;100940.25;;;2.06;100.00
15382;BME280;7789;51.364;12.358;2023-01-27T05:49:38;100942.72;;;2.09;100.00
15382;BME280;7789;51.364;12.358;2023-01-27T05:54:42;100948.88;;;2.05;100.00
15382;BME280;7789;51.364;12.358;2023-01-27T05:59:45;100937.75;;;2.04;100.00
15382;BME280;7789;51.364;12.358;2023-01-27T06:04:50;100954.03;;;2.05;100.00
15382;BME280;7789;51.364;12.358;2023-01-27T06:09:53;100945.53;;;2.03;100.00
15382;BME280;7789;51.364;12.358;2023-01-27T06:15:00;100961.66;;;2.08;100.00
15382;BME280;7789;51.364;12.358;2023-01-27T06:20:06;100965.88;;;2.10;100.00
15382;BME280;7789;51.364;12.358;2023-01-27T06:25:19;100957.84;;;2.18;100.00
15382;BME280;7789;51.364;12.358;2023-01-27T06:30:23;100969.06;;;2.17;100.00
15382;BME280;7789;51.364;12.358;2023-01-27T06:35:28;100964.69;;;2.19;100.00
15382;BME280;7789;51.364;12.358;2023-01-27T06:40:36;100966.34;;;2.20;100.00
15382;BME280;7789;51.364;12.358;2023-01-27T06:45:40;100970.47;;;2.24;100.00
15382;BME280;7789;51.364;12.358;2023-01-27T06:50:45;100980.63;;;2.28;100.00
15382;BME280;7789;51.364;12.358;2023-01-27T06:55:55;100974.63;;;2.28;100.00
15382;BME280;7789;51.364;12.358;2023-01-27T07:00:58;100972.91;;;2.28;100.00
15382;BME280;7789;51.364;12.358;2023-01-27T07:06:03;100972.00;;;2.29;100.00
15382;BME280;7789;51.364;12.358;2023-01-27T07:11:07;100976.25;;;2.30;100.00
15382;BME280;7789;51.364;12.358;2023-01-27T07:16:10;100989.75;;;2.37;100.00
15382;BME280;7789;51.364;12.358;2023-01-27T07:21:15;100988.81;;;2.39;100.00
15382;BME280;7789;51.364;12.358;2023-01-27T07:26:18;100992.94;;;2.43;100.00
15382;BME280;7789;51.364;12.358;2023-01-27T07:31:26;100997.38;;;2.40;100.00
15382;BME280;7789;51.364;12.358;2023-01-27T07:36:30;101001.63;;;2.41;100.00
15382;BME280;7789;51.364;12.358;2023-01-27T07:41:34;101004.84;;;2.46;100.00
15382;BME280;7789;51.364;12.358;2023-01-27T07:46:37;101004.75;;;2.49;100.00
15382;BME280;7789;51.364;12.358;2023-01-27T07:51:41;101014.88;;;2.53;100.00
15382;BME280;7789;51.364;12.358;2023-01-27T07:56:45;101022.56;;;2.55;100.00
15382;BME280;7789;51.364;12.358;2023-01-27T08:01:48;101022.44;;;2.58;100.00
15382;BME280;7789;51.364;12.358;2023-01-27T08:06:53;101033.75;;;2.55;100.00
15382;BME280;7789;51.364;12.358;2023-01-27T08:11:57;101028.22;;;2.64;100.00
15382;BME280;7789;51.364;12.358;2023-01-27T08:17:00;101033.09;;;2.72;100.00
15382;BME280;7789;51.364;12.358;2023-01-27T08:22:05;101037.47;;;2.70;100.00
15382;BME280;7789;51.364;12.358;2023-01-27T08:27:11;101028.88;;;2.69;100.00
15382;BME280;7789;51.364;12.358;2023-01-27T08:32:14;101032.81;;;2.78;100.00
15382;BME280;7789;51.364;12.358;2023-01-27T08:37:19;101041.78;;;2.91;100.00
15382;BME280;7789;51.364;12.358;2023-01-27T08:42:22;101036.34;;;2.97;100.00
15382;BME280;7789;51.364;12.358;2023-01-27T08:47:26;101046.31;;;3.06;100.00
15382;BME280;7789;51.364;12.358;2023-01-27T08:52:31;101048.84;;;3.07;100.00
15382;BME280;7789;51.364;12.358;2023-01-27T08:57:34;101056.22;;;3.16;100.00
15382;BME280;7789;51.364;12.358;2023-01-27T09:02:38;101062.94;;;3.20;100.00
15382;BME280;7789;51.364;12.358;2023-01-27T09:07:43;101056.63;;;3.27;100.00
15382;BME280;7789;51.364;12.358;2023-01-27T09:12:46;101050.28;;;3.34;100.00
15382;BME280;7789;51.364;12.358;2023-01-27T09:17:54;101052.09;;;3.32;100.00
15382;BME280;7789;51.364;12.358;2023-01-27T09:22:59;101044.75;;;3.43;100.00
15382;BME280;7789;51.364;12.358;2023-01-27T09:28:02;101053.72;;;3.55;100.00
15382;BME280;7789;51.364;12.358;2023-01-27T09:33:06;101061.34;;;3.58;100.00
15382;BME280;7789;51.364;12.358;2023-01-27T09:38:13;101047.25;;;3.64;100.00
15382;BME280;7789;51.364;12.358;2023-01-27T09:43:29;101050.28;;;3.74;100.00
15382;BME280;7789;51.364;12.358;2023-01-27T09:48:47;101050.09;;;3.78;100.00
15382;BME280;7789;51.364;12.358;2023-01-27T09:54:33;101061.72;;;3.88;100.00
15382;BME280;7789;51.364;12.358;2023-01-27T09:59:52;101064.69;;;3.79;100.00
15382;BME280;7789;51.364;12.358;2023-01-27T10:05:18;101061.00;;;3.85;100.00
15382;BME280;7789;51.364;12.358;2023-01-27T10:10:40;101066.03;;;3.88;100.00
15382;BME280;7789;51.364;12.358;2023-01-27T10:15:57;101065.84;;;3.92;100.00
15382;BME280;7789;51.364;12.358;2023-01-27T10:21:08;101069.28;;;3.93;100.00
15382;BME280;7789;51.364;12.358;2023-01-27T10:26:22;101080.31;;;3.96;100.00
15382;BME280;7789;51.364;12.358;2023-01-27T10:31:30;101075.38;;;3.92;100.00
15382;BME280;7789;51.364;12.358;2023-01-27T10:36:44;101077.88;;;3.93;100.00
15382;BME280;7789;51.364;12.358;2023-01-27T10:41:56;101073.31;;;3.98;100.00
15382;BME280;7789;51.364;12.358;2023-01-27T10:47:09;101076.78;;;3.99;100.00
15382;BME280;7789;51.364;12.358;2023-01-27T10:52:19;101072.56;;;3.96;100.00
15382;BME280;7789;51.364;12.358;2023-01-27T10:57:29;101075.84;;;4.00;100.00
15382;BME280;7789;51.364;12.358;2023-01-27T11:02:38;101065.31;;;4.04;100.00
15382;BME280;7789;51.364;12.358;2023-01-27T11:07:50;101065.03;;;4.10;100.00
15382;BME280;7789;51.364;12.358;2023-01-27T11:12:57;101066.56;;;4.14;100.00
15382;BME280;7789;51.364;12.358;2023-01-27T11:18:04;101056.88;;;4.19;100.00
15382;BME280;7789;51.364;12.358;2023-01-27T11:23:15;101056.66;;;4.24;100.00
15382;BME280;7789;51.364;12.358;2023-01-27T11:28:30;101053.09;;;4.26;100.00
15382;BME280;7789;51.364;12.358;2023-01-27T11:33:47;101042.47;;;4.32;100.00
15382;BME280;7789;51.364;12.358;2023-01-27T11:38:56;101044.03;;;4.36;100.00
15382;BME280;7789;51.364;12.358;2023-01-27T11:44:03;101048.19;;;4.39;100.00
15382;BME280;7789;51.364;12.358;2023-01-27T11:49:08;101042.75;;;4.45;100.00
15382;BME280;7789;51.364;12.358;2023-01-27T11:54:16;101042.53;;;4.49;100.00
15382;BME280;7789;51.364;12.358;2023-01-27T11:59:23;101032.97;;;4.51;100.00
15382;BME280;7789;51.364;12.358;2023-01-27T12:04:41;101042.53;;;4.49;100.00
15382;BME280;7789;51.364;12.358;2023-01-27T12:09:49;101041.56;;;4.52;100.00
15382;BME280;7789;51.364;12.358;2023-01-27T12:14:56;101039.59;;;4.57;100.00
15382;BME280;7789;51.364;12.358;2023-01-27T12:20:01;101026.53;;;4.60;100.00
15382;BME280;7789;51.364;12.358;2023-01-27T12:25:14;101030.84;;;4.59;100.00
15382;BME280;7789;51.364;12.358;2023-01-27T12:30:22;101027.50;;;4.57;100.00
15382;BME280;7789;51.364;12.358;2023-01-27T12:35:29;101022.09;;;4.62;100.00
15382;BME280;7789;51.364;12.358;2023-01-27T12:40:39;101024.41;;;4.68;100.00
15382;BME280;7789;51.364;12.358;2023-01-27T12:46:02;101018.25;;;4.70;100.00
15382;BME280;7789;51.364;12.358;2023-01-27T12:51:13;101019.94;;;4.71;100.00
15382;BME280;7789;51.364;12.358;2023-01-27T12:56:19;101016.56;;;4.69;100.00
15382;BME280;7789;51.364;12.358;2023-01-27T13:01:27;101020.13;;;4.67;100.00
15382;BME280;7789;51.364;12.358;2023-01-27T13:06:43;101024.56;;;4.65;100.00
15382;BME280;7789;51.364;12.358;2023-01-27T13:11:48;101025.38;;;4.65;100.00
15382;BME280;7789;51.364;12.358;2023-01-27T13:16:54;101019.94;;;4.71;100.00
15382;BME280;7789;51.364;12.358;2023-01-27T13:21:59;101016.31;;;4.74;100.00
15382;BME280;7789;51.364;12.358;2023-01-27T13:27:11;101018.91;;;4.74;100.00
15382;BME280;7789;51.364;12.358;2023-01-27T13:32:21;101019.63;;;4.77;100.00
15382;BME280;7789;51.364;12.358;2023-01-27T13:37:30;101013.75;;;4.74;100.00
15382;BME280;7789;51.364;12.358;2023-01-27T13:42:40;101026.41;;;4.80;100.00
15382;BME280;7789;51.364;12.358;2023-01-27T13:47:50;101030.84;;;4.78;100.00
15382;BME280;7789;51.364;12.358;2023-01-27T13:52:57;101037.03;;;4.74;100.00
15382;BME280;7789;51.364;12.358;2023-01-27T13:58:04;101044.91;;;4.72;100.00
15382;BME280;7789;51.364;12.358;2023-01-27T14:03:37;101056.72;;;4.78;100.00
15382;BME280;7789;51.364;12.358;2023-01-27T14:08:53;101052.47;;;4.77;100.00
15382;BME280;7789;51.364;12.358;2023-01-27T14:14:19;101055.94;;;4.76;100.00
15382;BME280;7789;51.364;12.358;2023-01-27T14:19:33;101058.47;;;4.77;100.00
15382;BME280;7789;51.364;12.358;2023-01-27T14:24:43;101060.22;;;4.77;100.00
15382;BME280;7789;51.364;12.358;2023-01-27T14:29:54;101061.97;;;4.76;100.00
15382;BME280;7789;51.364;12.358;2023-01-27T14:35:27;101070.34;;;4.81;100.00
15382;BME280;7789;51.364;12.358;2023-01-27T14:40:40;101073.63;;;4.85;100.00
15382;BME280;7789;51.364;12.358;2023-01-27T14:45:51;101072.03;;;4.82;100.00
15382;BME280;7789;51.364;12.358;2023-01-27T14:51:05;101072.88;;;4.83;100.00
15382;BME280;7789;51.364;12.358;2023-01-27T14:56:16;101072.78;;;4.84;100.00
15382;BME280;7789;51.364;12.358;2023-01-27T15:01:31;101070.34;;;4.81;100.00
15382;BME280;7789;51.364;12.358;2023-01-27T15:06:44;101069.59;;;4.79;100.00
15382;BME280;7789;51.364;12.358;2023-01-27T15:12:06;101071.41;;;4.77;100.00
15382;BME280;7789;51.364;12.358;2023-01-27T15:17:22;101072.19;;;4.79;100.00
15382;BME280;7789;51.364;12.358;2023-01-27T15:22:43;101080.72;;;4.81;100.00
15382;BME280;7789;51.364;12.358;2023-01-27T15:27:51;101074.06;;;4.76;100.00
15382;BME280;7789;51.364;12.358;2023-01-27T15:32:55;101095.69;;;4.75;100.00
15382;BME280;7789;51.364;12.358;2023-01-27T15:38:13;101098.16;;;4.78;100.00
15382;BME280;7789;51.364;12.358;2023-01-27T15:43:19;101105.84;;;4.79;100.00
15382;BME280;7789;51.364;12.358;2023-01-27T15:48:27;101107.50;;;4.80;100.00
15382;BME280;7789;51.364;12.358;2023-01-27T15:53:38;101113.41;;;4.84;100.00
15382;BME280;7789;51.364;12.358;2023-01-27T15:58:43;101117.72;;;4.83;100.00
15382;BME280;7789;51.364;12.358;2023-01-27T16:04:05;101111.72;;;4.83;100.00
15382;BME280;7789;51.364;12.358;2023-01-27T16:09:20;101119.56;;;4.81;100.00
15382;BME280;7789;51.364;12.358;2023-01-27T16:14:38;101125.38;;;4.86;100.00
15382;BME280;7789;51.364;12.358;2023-01-27T16:19:45;101121.94;;;4.86;100.00
15382;BME280;7789;51.364;12.358;2023-01-27T16:24:55;101134.06;;;4.85;100.00
15382;BME280;7789;51.364;12.358;2023-01-27T16:30:09;101129.50;;;4.90;100.00
15382;BME280;7789;51.364;12.358;2023-01-27T16:35:16;101127.97;;;4.86;100.00
15382;BME280;7789;51.364;12.358;2023-01-27T16:40:24;101130.41;;;4.89;100.00
15382;BME280;7789;51.364;12.358;2023-01-27T16:45:32;101132.34;;;4.84;100.00
15382;BME280;7789;51.364;12.358;2023-01-27T16:50:41;101134.88;;;4.86;100.00
15382;BME280;7789;51.364;12.358;2023-01-27T16:56:01;101133.91;;;4.88;100.00
15382;BME280;7789;51.364;12.358;2023-01-27T17:01:12;101137.19;;;4.92;100.00
15382;BME280;7789;51.364;12.358;2023-01-27T17:06:19;101146.00;;;4.88;100.00
15382;BME280;7789;51.364;12.358;2023-01-27T17:11:27;101143.72;;;4.82;100.00
15382;BME280;7789;51.364;12.358;2023-01-27T17:16:34;101150.63;;;4.81;100.00
15382;BME280;7789;51.364;12.358;2023-01-27T17:21:40;101157.44;;;4.84;100.00
15382;BME280;7789;51.364;12.358;2023-01-27T17:26:55;101153.97;;;4.83;100.00
15382;BME280;7789;51.364;12.358;2023-01-27T17:32:00;101162.47;;;4.87;100.00
15382;BME280;7789;51.364;12.358;2023-01-27T17:37:07;101172.13;;;4.83;100.00
15382;BME280;7789;51.364;12.358;2023-01-27T17:42:19;101179.75;;;4.86;100.00
15382;BME280;7789;51.364;12.358;2023-01-27T17:47:25;101181.78;;;4.80;100.00
15382;BME280;7789;51.364;12.358;2023-01-27T17:52:28;101184.25;;;4.83;100.00
15382;BME280;7789;51.364;12.358;2023-01-27T17:57:34;101184.28;;;4.81;100.00
15382;BME280;7789;51.364;12.358;2023-01-27T18:02:42;101186.19;;;4.78;100.00
15382;BME280;7789;51.364;12.358;2023-01-27T18:07:46;101186.19;;;4.78;100.00
15382;BME280;7789;51.364;12.358;2023-01-27T18:12:52;101196.47;;;4.79;100.00
15382;BME280;7789;51.364;12.358;2023-01-27T18:17:59;101189.63;;;4.78;100.00
15382;BME280;7789;51.364;12.358;2023-01-27T18:23:04;101185.19;;;4.80;100.00
15382;BME280;7789;51.364;12.358;2023-01-27T18:28:14;101185.19;;;4.80;100.00
15382;BME280;7789;51.364;12.358;2023-01-27T18:33:18;101204.25;;;4.79;100.00
15382;BME280;7789;51.364;12.358;2023-01-27T18:38:23;101203.63;;;4.74;100.00
15382;BME280;7789;51.364;12.358;2023-01-27T18:43:28;101212.50;;;4.69;100.00
15382;BME280;7789;51.364;12.358;2023-01-27T18:48:31;101218.63;;;4.66;100.00
15382;BME280;7789;51.364;12.358;2023-01-27T18:53:35;101219.44;;;4.68;100.00
15382;BME280;7789;51.364;12.358;2023-01-27T18:58:40;101220.25;;;4.69;100.00
15382;BME280;7789;51.364;12.358;2023-01-27T19:03:44;101224.66;;;4.67;100.00
15382;BME280;7789;51.364;12.358;2023-01-27T19:08:47;101222.28;;;4.62;100.00
15382;BME280;7789;51.364;12.358;2023-01-27T19:13:54;101213.53;;;4.65;100.00
15382;BME280;7789;51.364;12.358;2023-01-27T19:18:58;101219.53;;;4.65;100.00
15382;BME280;7789;51.364;12.358;2023-01-27T19:24:02;101218.84;;;4.62;100.00
15382;BME280;7789;51.364;12.358;2023-01-27T19:29:09;101221.38;;;4.63;100.00
15382;BME280;7789;51.364;12.358;2023-01-27T19:34:13;101235.03;;;4.67;100.00
15382;BME280;7789;51.364;12.358;2023-01-27T19:39:18;101231.09;;;4.58;100.00
15382;BME280;7789;51.364;12.358;2023-01-27T19:44:23;101246.91;;;4.52;100.00
15382;BME280;7789;51.364;12.358;2023-01-27T19:49:26;101240.81;;;4.53;100.00
15382;BME280;7789;51.364;12.358;2023-01-27T19:54:29;101236.47;;;4.54;100.00
15382;BME280;7789;51.364;12.358;2023-01-27T19:59:34;101240.88;;;4.52;100.00
15382;BME280;7789;51.364;12.358;2023-01-27T20:04:38;101244.81;;;4.60;100.00
15382;BME280;7789;51.364;12.358;2023-01-27T20:09:42;101251.94;;;4.55;100.00
15382;BME280;7789;51.364;12.358;2023-01-27T20:14:47;101254.38;;;4.58;100.00
15382;BME280;7789;51.364;12.358;2023-01-27T20:19:50;101255.09;;;4.62;100.00
15382;BME280;7789;51.364;12.358;2023-01-27T20:24:54;101262.16;;;4.58;100.00
15382;BME280;7789;51.364;12.358;2023-01-27T20:29:59;101264.03;;;4.55;100.00
15382;BME280;7789;51.364;12.358;2023-01-27T20:35:03;101263.19;;;4.54;100.00
15382;BME280;7789;51.364;12.358;2023-01-27T20:45:39;101260.81;;;4.50;100.00
15382;BME280;7789;51.364;12.358;2023-01-27T20:50:44;101275.22;;;4.55;100.00
15382;BME280;7789;51.364;12.358;2023-01-27T20:55:48;101276.00;;;4.57;100.00
15382;BME280;7789;51.364;12.358;2023-01-27T21:00:53;101287.47;;;4.52;100.00
15382;BME280;7789;51.364;12.358;2023-01-27T21:06:09;101286.56;;;4.53;100.00
15382;BME280;7789;51.364;12.358;2023-01-27T21:11:18;101287.31;;;4.55;100.00
15382;BME280;7789;51.364;12.358;2023-01-27T21:16:23;101289.22;;;4.51;100.00
15382;BME280;7789;51.364;12.358;2023-01-27T21:21:29;101292.78;;;4.49;100.00
15382;BME280;7789;51.364;12.358;2023-01-27T21:26:34;101288.31;;;4.52;100.00
15382;BME280;7789;51.364;12.358;2023-01-27T21:31:40;101286.72;;;4.48;100.00
15382;BME280;7789;51.364;12.358;2023-01-27T21:36:46;101285.81;;;4.49;100.00
15382;BME280;7789;51.364;12.358;2023-01-27T21:41:50;101287.78;;;4.44;100.00
15382;BME280;7789;51.364;12.358;2023-01-27T21:47:14;101295.63;;;4.43;100.00
15382;BME280;7789;51.364;12.358;2023-01-27T21:52:17;101283.56;;;4.42;100.00
15382;BME280;7789;51.364;12.358;2023-01-27T21:57:21;101289.72;;;4.39;100.00
15382;BME280;7789;51.364;12.358;2023-01-27T22:02:26;101295.81;;;4.38;100.00
15382;BME280;7789;51.364;12.358;2023-01-27T22:07:31;101299.31;;;4.37;100.00
15382;BME280;7789;51.364;12.358;2023-01-27T22:12:39;101296.78;;;4.36;100.00
15382;BME280;7789;51.364;12.358;2023-01-27T22:17:47;101291.78;;;4.31;100.00
15382;BME280;7789;51.364;12.358;2023-01-27T22:22:52;101295.41;;;4.27;100.00
15382;BME280;7789;51.364;12.358;2023-01-27T22:27:57;101292.75;;;4.29;100.00
15382;BME280;7789;51.364;12.358;2023-01-27T22:33:02;101296.31;;;4.26;100.00
15382;BME280;7789;51.364;12.358;2023-01-27T22:38:06;101291.41;;;4.20;100.00
15382;BME280;7789;51.364;12.358;2023-01-27T22:43:09;101293.84;;;4.23;100.00
15382;BME280;7789;51.364;12.358;2023-01-27T22:48:14;101293.97;;;4.20;100.00
15382;BME280;7789;51.364;12.358;2023-01-27T22:53:20;101289.72;;;4.19;100.00
15382;BME280;7789;51.364;12.358;2023-01-27T22:58:23;101293.53;;;4.11;100.00
15382;BME280;7789;51.364;12.358;2023-01-27T23:03:30;101296.34;;;4.05;100.00
15382;BME280;7789;51.364;12.358;2023-01-27T23:08:34;101287.50;;;4.10;100.00
15382;BME280;7789;51.364;12.358;2023-01-27T23:13:38;101290.06;;;4.10;100.00
15382;BME280;7789;51.364;12.358;2023-01-27T23:18:43;101288.53;;;4.06;100.00
15382;BME280;7789;51.364;12.358;2023-01-27T23:23:49;101282.63;;;4.03;100.00
15382;BME280;7789;51.364;12.358;2023-01-27T23:28:53;101285.16;;;4.04;100.00
15382;BME280;7789;51.364;12.358;2023-01-27T23:33:58;101287.88;;;4.01;100.00
15382;BME280;7789;51.364;12.358;2023-01-27T23:39:10;101286.25;;;3.99;100.00
15382;BME280;7789;51.364;12.358;2023-01-27T23:44:15;101289.88;;;3.95;100.00
15382;BME280;7789;51.364;12.358;2023-01-27T23:49:22;101285.66;;;3.92;100.00
15382;BME280;7789;51.364;12.358;2023-01-27T23:54:28;101275.31;;;3.92;100.00
15382;BME280;7789;51.364;12.358;2023-01-27T23:59:34;101281.34;;;3.93;100.00
